Flight Track Log - Related Links

Times and Time Zones

All times are in EDT time to prevent confusion due to time zone crossing. See the N244A flight status page for this flight to view local times or setup timezone preferences in your user account.

Time Position Orientation Groundspeed Altitude Reporting Facility
EDT Latitude Longitude Course Direction KTS MPH feet Rate Location/Type
Thu 03:19:07 PM 42.3667 -71.0000 304° West 130 150 900  Level KA90
Thu 03:20:37 PM 42.4167 -71.1000 304° West 276 318 5,400 3,576 Climbing KA90
Thu 03:21:38 PM 42.3833 -71.1833 242° Southwest 325 374 9,900 3,029 Climbing KA90
Thu 03:24:07 PM 42.1453 -71.0444 157° South 408 470 16,000 1,771 Climbing Boston Center
Thu 03:25:08 PM 42.0481 -70.9575 146° Southeast 417 480 16,100 49 Climbing Boston Center
Thu 03:26:09 PM 41.9561 -70.8639 143° Southeast 415 478 16,100  Level Boston Center
Thu 03:27:10 PM 41.8589 -70.7783 147° Southeast 409 471 16,100 -49 Level Boston Center
Thu 03:28:11 PM 41.7544 -70.8111 193° South 397 457 16,000  Descending Boston Center
Thu 03:29:12 PM 41.6531 -70.8861 209° Southwest 392 451 16,100 49 Climbing Boston Center
Thu 03:30:13 PM 41.5575 -70.9586 210° Southwest 395 455 16,100  Level Boston Center
Thu 03:31:14 PM 41.4839 -71.0656 227° Southwest 391 450 16,100  Level Boston Center
Thu 03:32:15 PM 41.4108 -71.1856 231° Southwest 389 448 16,100  Level Boston Center
Thu 03:33:16 PM 41.3414 -71.2967 230° Southwest 389 448 16,100 -49 Level Boston Center
Thu 03:34:17 PM 41.2722 -71.4083 231° Southwest 390 449 16,000 -148 Descending Boston Center
Thu 03:35:18 PM 41.2017 -71.5233 231° Southwest 401 461 15,800  Descending Boston Center
Thu 03:36:20 PM 41.1597 -71.6506 246° West 381 438 16,000 98 Climbing Boston Center
Thu 03:37:21 PM 41.1403 -71.7975 260° West 380 437 16,000  Level Boston Center
Thu 03:38:22 PM 41.1239 -71.9328 261° West 382 440 16,000  Level Boston Center
Thu 03:39:23 PM 41.1056 -72.0706 260° West 381 438 16,000  Level Boston Center
Thu 03:40:24 PM 41.0794 -72.2081 256° West 388 447 16,000 -492 Level Boston Center
Thu 03:41:25 PM 41.0456 -72.3408 251° West 382 440 15,000 -934 Descending Boston Center
Thu 03:42:26 PM 41.0131 -72.4689 251° West 374 430 14,100 -984 Descending Boston Center
Thu 03:43:27 PM 40.9814 -72.5928 251° West 365 420 13,000 -1,033 Descending Boston Center
Thu 03:44:28 PM 40.9467 -72.7347 252° West 350 403 12,000 -619 Descending Boston Center
Thu 03:45:04 PM 40.9167 -72.8000 239° Southwest 320 368 12,000 -125 Level New TRACON
Thu 03:46:04 PM 40.8667 -72.8667 225° Southwest 297 342 11,800 -700 Descending New TRACON
Thu 03:47:04 PM 40.8000 -72.9333 217° Southwest 285 328 10,600 -1,200 Descending New TRACON
Thu 03:48:04 PM 40.7500 -73.0000 225° Southwest 271 312 9,400 -1,500 Descending New TRACON
Thu 03:49:04 PM 40.7167 -73.0833 242° Southwest 261 300 7,600 -1,750 Descending New TRACON
Thu 03:50:04 PM 40.6833 -73.1667 242° Southwest 264 304 5,900 -1,600 Descending New TRACON
Thu 03:51:04 PM 40.6500 -73.2500 242° Southwest 255 293 4,400 -1,000 Descending New TRACON
Thu 03:52:04 PM 40.6167 -73.3167 237° Southwest 227 261 3,900 -700 Descending New TRACON
Thu 03:53:04 PM 40.5833 -73.4000 242° Southwest 252 290 3,000 -450 Descending New TRACON
Thu 03:54:04 PM 40.5667 -73.4667 252° West 186 214 3,000  Level New TRACON
Thu 03:55:04 PM 40.5333 -73.5333 237° Southwest 202 232 3,000 -350 Level New TRACON
Thu 03:56:04 PM 40.5333 -73.5833 270° West 169 194 2,300 -550 Descending New TRACON
Thu 03:57:04 PM 40.5667 -73.6167 323° Northwest 116 133 1,900 -150 Descending New TRACON
Thu 03:58:04 PM 40.5667 -73.6500 270° West 98 113 2,000  Climbing New TRACON
Thu 03:59:04 PM 40.5833 -73.6833 303° West 101 116 1,900 -400 Descending New TRACON
Thu 04:00:04 PM 40.6000 -73.7167 303° West 100 115 1,200 -600 Descending New TRACON
Thu 04:01:04 PM 40.6167 -73.7500 303° West 101 116 700 -500 Descending New TRACON

Login

Don't have an account? Register now (free) for customized features, flight alerts, and more!